هيوستن، تكساس, TX

08:29 PM CDT on سبتهبر 16, 2014 (GMT -0500)
SE-Svc-Cntr | Change Station
CLOSE
Current Station
Personal Weather Stations
Location: Houston, TX
Elevation: 46 ft
Nearby Weather Stations

Elev 46 ft 29.71 °N, 95.26 °W | Updated 7 seconds ago

مطر
مطر
77.9 °F
Feels Like 80 °F
N
1.0
ريح متغير ريح from SSW
Gusts 2.0 mph

هذا اليوم
High -- | Low -- °F
--% Chance of Precip.
Yesterday
High -- | Low -- °F
Precip. -- في
7:06 AM 7:24 PM
الربع الآخر, 40% visible
الضغط 30.00 في
وضوح الرؤية 10.0 أميال
سحابات Few 2500 ft
غيوم متفرقة 5500 ft
غيوم متفرقة 10000 ft
غائم كلياً 25000 ft
مؤشر الحرارة 80 °F
نقطة الندى 77 °F
الرطوبة 96%
Rainfall 1.19 في
عمق الثلج Not available.
الأشعة فوق البنفسجية 0 out of 12
Pollen 8.70 out of 12
الأوزون جيد
PM2.5 جيد
Flu Activity Not available.
METAR KHOU 170053Z 00000KT 10SM -RA FEW025 SCT055 SCT100 BKN250 26/24 A2998 RMK AO2 SLP157 P0000 T02560244

More Conditions Fewer Conditions

الضغط 30.00 في
وضوح الرؤية 10.0 أميال
سحابات Few 2500 ft
غيوم متفرقة 5500 ft
غيوم متفرقة 10000 ft
غائم كلياً 25000 ft
مؤشر الحرارة 80 °F
نقطة الندى 77 °F
الرطوبة 96%
Rainfall 1.19 في
عمق الثلج Not available.
الأشعة فوق البنفسجية 0 out of 12
Pollen 8.70 out of 12
الأوزون جيد
PM2.5 جيد
Flu Activity Not available.
METAR KHOU 170053Z 00000KT 10SM -RA FEW025 SCT055 SCT100 BKN250 26/24 A2998 RMK AO2 SLP157 P0000 T02560244

More Conditions Fewer Conditions

10-Day Weather Forecast

Almanac

علم الفلك

Sep. 16, 2014 Rise Set
Actual Time 7:06 AM CDT 7:24 PM CDT
Civil Twilight 6:42 AM CDT 7:48 PM CDT
Nautical Twilight 6:14 AM CDT 8:16 PM CDT
Astronomical Twilight 5:46 AM CDT 8:44 PM CDT
قمر 12:35 AM CDT (9/16) 2:30 PM CDT (9/16)
Length Of Visible Light 13h 06m
طول الیوم
12h 18m
Tomorrow will be 1m 46s shorter.
الربع الآخر, 40% of the Moon is Illuminated
هذا اليوم
الربع الآخر
Sep 24
New
Oct 1
الربع الاول
Oct 8
بدر
Oct 15
الربع الآخر

Today's Extremes

State Highs State Lows

Community

WunderPhotos

Upload Photos

1,753,943 photos uploaded!

Nearby

جودة الهواء

  جودة الهواء AQ Index Pollutant
Yesterday معتدل
PM2.5
Yesterday جيد
OZONE
حال جيد
PM2.5
حال جيد
OZONE
الثلاثاء جيد
OZONE
الثلاثاء جيد
PM10
الأربعاء جيد
OZONE
الأربعاء جيد
PM10
الخميس جيد
OZONE
الخميس جيد
PM10
الجمعة جيد
OZONE
الجمعة جيد
PM10

عمق الثلج

Station Depth Elevation
No new snow has been reported.

Earthquake Activity

City Distance Mag. Time & Date
No recent earthquake activity has been reported nearby.
Minimum magnitude displayed is 2.5.

Coastal Water Temperatures

مكان درجات الحرارة
Eagle Point, TX 82.9 °F
USCG Freeport, TX 84.0 °F
Galveston Pier TX 82.9 °F
Galveston Bay (North Jetty), TX 82.9 °F
Rollover Pass, TX 82.0 °F

Nearby Weather Stations